To NAV CANADA Home Page Login to a new session Search on AWWS site Feedback and Comments Disclaimer Vers la page française équivalente Tips FAQ What's new on the site To the Forecasts and Observations / NOTAM section To "File a Flight Plan" website Publications and other links Update of the User's profile FIC Telephone Numbers My Weather Data Folder Route Weather Data Regional Weather Data Local Weather Data To the Forecasts and Observations / NOTAM section
Request Generated 03/31/2015 at 11:18:08 UTC . Weather information available at that time is displayed.

METAR/TAF

EARLTON/EARLTON (TIMISKAMING REGIONAL)/ON    (show WxCam)

METAR CYXR 311100Z AUTO 32004KT 9SM CLR M19/M21 A2990 RMK ICG INTMT
SLP147=
METAR CYXR 311000Z AUTO 30004KT 9SM CLR M17/M19 A2990 RMK ICG INTMT
SLP151=
SPECI CYXR 310922Z AUTO 29004KT 9SM CLR M16/M18 A2989 RMK ICG SLP142=
METAR CYXR 310900Z AUTO 29004KT 9SM CLR M16/M17 A2989 RMK ICG SLP141=

*** REMARK        : Forecast period has ended; this was the last TAF issued
*** REMARQUE : La période de prévision est échue; ceci était le dernier TAF qui a été émis
TAF AMD CYXR 302213Z 3022/3024 31018G28KT P6SM BKN030 TEMPO 3022/3024
5SM -SN BLSN OVC020
BECMG 3022/3024 32015G25KT
RMK FCST BASED ON AUTO OBS. NXT FCST WILL BE ISSUED AT 311145Z=
Your time UTC time
Weather data provided by Environment Canada and NAV CANADA